Time;durP1;ratioP1;P1;durP2;ratioP2;P2;SDS_P1;SDS_P2;PMS_P1;PMS_P2;Temp;Humidity;BMP_temperature;BMP_pressure;BME280_temperature;BME280_humidity;BME280_pressure;Samples;Min_cycle;Max_cycle;Signal;HPM_P1;HPM_P2
2021/04/04 00:02:24;;;;;;;9.13;5.18;;;1.40;99.90;;;;;;5036798;28;20193;-69
2021/04/04 00:04:51;;;;;;;11.25;4.85;;;1.50;99.90;;;;;;5078311;22;20716;-69
2021/04/04 00:07:19;;;;;;;12.15;6.82;;;1.40;99.90;;;;;;5073223;28;20575;-70
2021/04/04 00:09:47;;;;;;;11.07;6.78;;;1.30;99.90;;;;;;5074791;28;20181;-69
2021/04/04 00:12:14;;;;;;;11.82;6.32;;;1.30;99.90;;;;;;5075151;28;20471;-69
2021/04/04 00:14:41;;;;;;;9.32;5.82;;;1.30;99.90;;;;;;5074957;28;20223;-68
2021/04/04 00:17:09;;;;;;;7.65;5.72;;;1.30;99.90;;;;;;5074736;28;20207;-69
2021/04/04 00:19:36;;;;;;;4.90;3.95;;;1.20;99.90;;;;;;5074902;28;20172;-68
2021/04/04 00:22:03;;;;;;;9.20;5.25;;;1.20;99.90;;;;;;5075329;28;20183;-68
2021/04/04 00:24:30;;;;;;;7.70;5.70;;;1.20;99.90;;;;;;5074993;28;20683;-67
2021/04/04 00:26:58;;;;;;;10.00;5.88;;;1.20;99.90;;;;;;5075071;28;20239;-68
2021/04/04 00:29:26;;;;;;;6.85;5.78;;;1.10;99.90;;;;;;5074351;28;20192;-69
2021/04/04 00:31:53;;;;;;;11.25;5.25;;;1.10;99.90;;;;;;5074168;28;20544;-68
2021/04/04 00:34:20;;;;;;;8.73;5.80;;;1.10;99.90;;;;;;5074330;28;20212;-69
2021/04/04 00:36:47;;;;;;;6.60;4.50;;;1.10;99.90;;;;;;5074170;28;20216;-67
2021/04/04 00:39:14;;;;;;;9.75;5.50;;;1.00;99.90;;;;;;5074196;28;20297;-69
2021/04/04 00:41:42;;;;;;;9.52;4.28;;;1.10;99.90;;;;;;5074565;28;20188;-69
2021/04/04 00:44:11;;;;;;;7.68;4.63;;;1.20;99.90;;;;;;5074760;28;20200;-68
2021/04/04 00:46:39;;;;;;;8.60;5.50;;;1.20;99.90;;;;;;5074198;28;20298;-68
2021/04/04 00:49:06;;;;;;;8.18;3.97;;;1.20;99.90;;;;;;5074533;28;20545;-68
2021/04/04 00:51:34;;;;;;;5.72;4.88;;;1.20;99.90;;;;;;5074310;28;20172;-68
2021/04/04 00:54:05;;;;;;;6.93;4.47;;;1.20;99.90;;;;;;5055952;28;20254;-69
2021/04/04 00:56:33;;;;;;;8.02;5.40;;;1.10;99.90;;;;;;5074322;28;20200;-69
2021/04/04 00:59:02;;;;;;;4.65;4.25;;;1.20;99.90;;;;;;5074341;28;20179;-68
2021/04/04 01:01:33;;;;;;;8.10;5.85;;;1.10;99.90;;;;;;5074160;28;20215;-68
2021/04/04 01:04:01;;;;;;;5.75;4.07;;;1.00;99.90;;;;;;5074012;28;20436;-68
2021/04/04 01:06:28;;;;;;;7.88;4.97;;;1.00;99.90;;;;;;5074108;28;20215;-69
2021/04/04 01:08:56;;;;;;;6.30;4.90;;;1.00;99.90;;;;;;5074130;28;20172;-68
2021/04/04 01:11:40;;;;;;;5.10;4.20;;;1.00;99.90;;;;;;5073846;28;20593;-69
2021/04/04 01:14:15;;;;;;;6.63;6.03;;;1.00;99.90;;;;;;5073564;28;20200;-68
2021/04/04 01:16:46;;;;;;;3.58;3.28;;;1.00;99.90;;;;;;5073534;28;20208;-68
2021/04/04 01:19:22;;;;;;;6.88;3.65;;;1.00;99.90;;;;;;5073698;28;20180;-69
2021/04/04 01:21:53;;;;;;;7.28;4.53;;;0.90;99.90;;;;;;5073796;28;20208;-68
2021/04/04 01:24:29;;;;;;;5.90;4.35;;;0.90;99.90;;;;;;5073664;28;20175;-69
2021/04/04 01:27:03;;;;;;;9.43;6.20;;;0.80;99.90;;;;;;5073738;28;20204;-68
2021/04/04 01:29:35;;;;;;;10.85;4.68;;;0.80;99.90;;;;;;5073674;28;20194;-69
2021/04/04 01:32:02;;;;;;;5.47;4.47;;;0.80;99.90;;;;;;5073436;28;20235;-66
2021/04/04 01:34:31;;;;;;;5.07;4.57;;;0.90;99.90;;;;;;5073055;28;20196;-68
2021/04/04 01:37:03;;;;;;;5.05;3.95;;;1.00;99.90;;;;;;5073250;28;20204;-68
2021/04/04 01:39:38;;;;;;;5.45;3.90;;;0.80;99.90;;;;;;5073496;28;20207;-68
2021/04/04 01:42:08;;;;;;;4.78;4.03;;;0.80;99.90;;;;;;5073312;28;20187;-68
2021/04/04 01:44:40;;;;;;;6.18;4.78;;;0.70;99.90;;;;;;5073275;28;20176;-68
2021/04/04 01:47:10;;;;;;;7.78;5.00;;;0.70;99.90;;;;;;5073422;28;20207;-68
2021/04/04 01:49:40;;;;;;;6.60;4.90;;;0.80;99.90;;;;;;5055236;28;20188;-69
2021/04/04 01:52:07;;;;;;;5.55;3.80;;;0.80;99.90;;;;;;5072981;28;20184;-69
2021/04/04 01:54:35;;;;;;;5.63;4.10;;;0.80;99.90;;;;;;5072859;28;20200;-68
2021/04/04 01:57:03;;;;;;;6.13;3.75;;;0.80;99.90;;;;;;5072512;28;20323;-68
2021/04/04 01:59:32;;;;;;;9.55;5.05;;;0.80;99.90;;;;;;5072561;28;20173;-69
2021/04/04 02:02:01;;;;;;;7.65;5.82;;;0.90;99.90;;;;;;5072231;28;20656;-68
2021/04/04 02:04:29;;;;;;;4.40;3.38;;;0.90;99.90;;;;;;5073443;28;20204;-68
2021/04/04 02:06:57;;;;;;;5.45;4.53;;;0.90;99.90;;;;;;5072849;28;20212;-68
2021/04/04 02:09:26;;;;;;;5.28;4.30;;;0.80;99.90;;;;;;5073167;28;20180;-67
2021/04/04 02:11:54;;;;;;;4.35;3.78;;;0.90;99.90;;;;;;5073142;28;20173;-69
2021/04/04 02:14:23;;;;;;;7.10;3.85;;;0.90;99.90;;;;;;5073253;28;20199;-69
2021/04/04 02:16:52;;;;;;;5.80;3.55;;;0.90;99.90;;;;;;5073508;28;20585;-68
2021/04/04 02:19:23;;;;;;;5.45;4.13;;;0.90;99.90;;;;;;5073531;28;20223;-68
2021/04/04 02:21:53;;;;;;;4.68;3.38;;;0.80;99.90;;;;;;5073933;28;20259;-69
2021/04/04 02:24:21;;;;;;;5.53;3.05;;;0.60;99.90;;;;;;5075673;28;20179;-69
2021/04/04 02:26:50;;;;;;;3.70;2.92;;;0.70;99.90;;;;;;5073727;28;20266;-69
2021/04/04 02:29:17;;;;;;;5.85;4.00;;;0.70;99.90;;;;;;5074251;28;20180;-68
2021/04/04 02:31:52;;;;;;;5.72;3.85;;;0.70;99.90;;;;;;5076796;28;20176;-69
2021/04/04 02:34:23;;;;;;;6.35;3.75;;;0.60;99.90;;;;;;5078023;28;20211;-68
2021/04/04 02:36:51;;;;;;;5.05;3.28;;;0.60;99.90;;;;;;5080678;28;20211;-70
2021/04/04 02:39:24;;;;;;;3.50;2.75;;;0.60;99.90;;;;;;5082095;28;20215;-68
2021/04/04 02:41:52;;;;;;;4.65;2.92;;;0.70;99.90;;;;;;5082319;28;20191;-67
2021/04/04 02:44:20;;;;;;;4.53;2.65;;;0.70;99.90;;;;;;5081489;28;20173;-68
2021/04/04 02:46:53;;;;;;;6.88;3.60;;;0.70;99.90;;;;;;5082353;28;20226;-67
2021/04/04 02:49:22;;;;;;;3.60;3.30;;;0.70;99.90;;;;;;5080106;28;20210;-69
2021/04/04 02:51:52;;;;;;;3.05;2.47;;;0.70;99.90;;;;;;5074288;28;20184;-69
2021/04/04 02:54:24;;;;;;;2.97;2.50;;;0.70;99.90;;;;;;5073684;28;20204;-67
2021/04/04 02:56:51;;;;;;;6.05;2.53;;;0.60;99.90;;;;;;5076194;28;20212;-69
2021/04/04 02:59:24;;;;;;;5.53;4.40;;;0.60;99.90;;;;;;5081667;28;20244;-67
2021/04/04 03:01:52;;;;;;;4.47;3.20;;;0.60;99.90;;;;;;5080689;28;20640;-68
2021/04/04 03:04:21;;;;;;;3.95;3.55;;;0.50;99.90;;;;;;5080370;28;20258;-68
2021/04/04 03:06:51;;;;;;;5.55;3.00;;;0.60;99.90;;;;;;5082865;28;20212;-68
2021/04/04 03:09:20;;;;;;;4.45;3.45;;;0.60;99.90;;;;;;5084490;28;20173;-67
2021/04/04 03:11:48;;;;;;;7.15;2.85;;;0.60;99.90;;;;;;5083126;28;20625;-68
2021/04/04 03:14:17;;;;;;;5.95;2.75;;;0.60;99.90;;;;;;5084023;28;20262;-68
2021/04/04 03:16:45;;;;;;;2.33;2.13;;;0.60;99.90;;;;;;5085809;28;20222;-68
2021/04/04 03:19:15;;;;;;;4.43;3.40;;;0.60;99.90;;;;;;5079318;28;20180;-68
2021/04/04 03:21:45;;;;;;;4.10;2.80;;;0.60;99.90;;;;;;5076683;28;20180;-68
2021/04/04 03:24:13;;;;;;;3.10;2.80;;;0.60;99.90;;;;;;5076185;28;20255;-68
2021/04/04 03:26:41;;;;;;;3.95;2.53;;;0.70;99.90;;;;;;5075699;28;20238;-68
2021/04/04 03:29:10;;;;;;;4.38;2.80;;;0.70;99.90;;;;;;5058171;28;20550;-69
2021/04/04 03:31:39;;;;;;;4.70;3.30;;;0.70;99.90;;;;;;5075821;28;20192;-68
2021/04/04 03:34:07;;;;;;;2.55;2.35;;;0.80;99.90;;;;;;5075458;28;20197;-69
2021/04/04 03:36:34;;;;;;;2.85;2.05;;;0.70;99.90;;;;;;5075539;28;20203;-69
2021/04/04 03:39:04;;;;;;;7.30;4.22;;;0.70;99.90;;;;;;5057934;28;20610;-69
2021/04/04 03:41:33;;;;;;;3.35;2.03;;;0.60;99.90;;;;;;5075618;28;20664;-69
2021/04/04 03:44:01;;;;;;;4.38;2.88;;;0.60;99.90;;;;;;5075395;28;20241;-69
2021/04/04 03:46:31;;;;;;;3.00;2.70;;;0.60;99.90;;;;;;5075237;28;20204;-68
2021/04/04 03:49:00;;;;;;;3.88;2.65;;;0.60;99.90;;;;;;5075222;28;20195;-68
2021/04/04 03:51:30;;;;;;;4.80;2.70;;;0.60;99.90;;;;;;5075524;28;20207;-68
2021/04/04 03:53:58;;;;;;;4.65;2.42;;;0.70;99.90;;;;;;5057280;28;20207;-69
2021/04/04 03:56:29;;;;;;;3.67;2.72;;;0.60;99.90;;;;;;5075504;28;20699;-70
2021/04/04 03:58:59;;;;;;;3.97;2.58;;;0.60;99.90;;;;;;5075417;28;20273;-68
2021/04/04 04:01:27;;;;;;;3.15;2.65;;;0.60;99.90;;;;;;5075060;28;20192;-69
2021/04/04 04:04:02;;;;;;;3.38;2.78;;;0.60;99.90;;;;;;5075951;28;20195;-68
2021/04/04 04:06:33;;;;;;;5.50;2.88;;;0.60;99.90;;;;;;5075916;28;20223;-69
2021/04/04 04:09:03;;;;;;;4.18;2.50;;;0.60;99.90;;;;;;5075238;28;20181;-68
2021/04/04 04:11:32;;;;;;;4.05;2.33;;;0.60;99.90;;;;;;5057075;28;20203;-68
2021/04/04 04:14:01;;;;;;;3.47;2.72;;;0.50;99.90;;;;;;5075336;28;20547;-69
2021/04/04 04:16:28;;;;;;;8.10;2.75;;;0.60;99.90;;;;;;5075054;28;20212;-68
2021/04/04 04:18:56;;;;;;;2.80;2.53;;;0.60;99.90;;;;;;5075104;28;20188;-69
2021/04/04 04:21:23;;;;;;;6.70;3.83;;;0.60;99.90;;;;;;5075204;28;20551;-69
2021/04/04 04:23:51;;;;;;;4.45;2.55;;;0.70;99.90;;;;;;5074659;28;20542;-69
2021/04/04 04:26:19;;;;;;;2.75;2.45;;;0.80;99.90;;;;;;5074027;28;20172;-69
2021/04/04 04:28:47;;;;;;;5.13;2.60;;;0.80;99.90;;;;;;5074786;28;20181;-68
2021/04/04 04:31:20;;;;;;;2.47;2.13;;;0.70;99.90;;;;;;5074542;28;20180;-67
2021/04/04 04:33:51;;;;;;;2.80;2.60;;;0.80;99.90;;;;;;5074724;28;20200;-69
2021/04/04 04:36:18;;;;;;;4.85;3.63;;;0.90;99.90;;;;;;5074835;28;20172;-68
2021/04/04 04:38:47;;;;;;;4.05;3.75;;;0.90;99.90;;;;;;5074830;28;20649;-68
2021/04/04 04:41:15;;;;;;;7.85;2.50;;;0.80;99.90;;;;;;5074466;28;20175;-68
2021/04/04 04:43:44;;;;;;;5.55;2.38;;;0.90;99.90;;;;;;5074558;28;20172;-67
2021/04/04 04:46:14;;;;;;;2.75;2.22;;;0.90;99.90;;;;;;5074174;28;20181;-68
2021/04/04 04:48:42;;;;;;;3.50;2.30;;;0.90;99.90;;;;;;5074361;28;20169;-68
2021/04/04 04:51:10;;;;;;;2.67;2.45;;;1.00;99.90;;;;;;5074596;28;20169;-69
2021/04/04 04:53:39;;;;;;;2.15;1.92;;;1.00;99.90;;;;;;5074484;28;20169;-68
2021/04/04 04:56:06;;;;;;;7.72;3.25;;;1.10;99.90;;;;;;5074535;28;20176;-69
2021/04/04 04:58:35;;;;;;;4.80;2.78;;;1.20;99.90;;;;;;5074190;28;20195;-68
2021/04/04 05:01:07;;;;;;;3.05;2.75;;;1.20;99.90;;;;;;5074565;28;20544;-68
2021/04/04 05:03:35;;;;;;;12.70;3.28;;;1.30;99.90;;;;;;5074327;28;20176;-68
2021/04/04 05:06:06;;;;;;;3.80;1.98;;;1.40;99.90;;;;;;5073923;28;20196;-68
2021/04/04 05:08:34;;;;;;;4.50;2.60;;;2.00;99.90;;;;;;5074109;28;20188;-68
2021/04/04 05:11:06;;;;;;;5.30;3.00;;;3.40;99.90;;;;;;5074549;28;20181;-69
2021/04/04 05:13:37;;;;;;;2.53;1.98;;;4.90;99.90;;;;;;5073824;28;20243;-69
2021/04/04 05:16:08;;;;;;;2.83;2.08;;;5.40;99.90;;;;;;5073854;28;20176;-67
2021/04/04 05:18:36;;;;;;;6.00;3.28;;;5.90;99.90;;;;;;5073908;28;20177;-69
2021/04/04 05:21:04;;;;;;;3.58;2.15;;;5.60;99.90;;;;;;5073898;28;20657;-68
2021/04/04 05:23:32;;;;;;;4.03;3.13;;;4.90;99.90;;;;;;5055753;28;20192;-68
2021/04/04 05:26:00;;;;;;;3.45;3.15;;;4.30;99.90;;;;;;5073737;28;20172;-68
2021/04/04 05:28:27;;;;;;;3.67;2.70;;;3.80;99.90;;;;;;5055544;28;20187;-67
2021/04/04 05:31:01;;;;;;;3.10;1.88;;;3.40;99.90;;;;;;5055453;28;20199;-69
2021/04/04 05:33:28;;;;;;;3.60;1.35;;;3.20;99.90;;;;;;5055576;28;20193;-69
2021/04/04 05:36:02;;;;;;;3.60;2.00;;;3.00;99.90;;;;;;5073380;28;20550;-68
2021/04/04 05:38:29;;;;;;;2.22;2.03;;;2.90;99.90;;;;;;5073101;28;20263;-67
2021/04/04 05:41:01;;;;;;;3.70;2.35;;;3.00;99.90;;;;;;5073465;28;20204;-68
2021/04/04 05:43:35;;;;;;;4.43;2.03;;;3.00;99.90;;;;;;5073472;28;20262;-68
2021/04/04 05:46:05;;;;;;;4.93;2.50;;;3.10;99.90;;;;;;5073362;28;20189;-69
2021/04/04 05:48:43;;;;;;;3.25;2.08;;;3.20;99.90;;;;;;5073156;28;20183;-69
2021/04/04 05:51:27;;;;;;;2.92;1.55;;;3.20;99.90;;;;;;5073332;28;20536;-69
2021/04/04 05:54:08;;;;;;;2.28;2.00;;;3.30;99.90;;;;;;5073714;28;20206;-69
2021/04/04 05:56:42;;;;;;;3.25;1.98;;;3.40;99.90;;;;;;5072888;28;20208;-68
2021/04/04 05:59:12;;;;;;;2.35;2.15;;;3.40;99.90;;;;;;5073163;28;20739;-68
2021/04/04 06:02:26;;;;;;;3.03;1.83;;;3.50;99.90;;;;;;5073216;28;20169;-69
2021/04/04 06:05:29;;;;;;;6.68;2.35;;;3.60;99.90;;;;;;5045376;28;20673;-69
2021/04/04 06:08:17;;;;;;;3.90;3.15;;;3.70;99.90;;;;;;5050495;28;20228;-68
2021/04/04 06:10:53;;;;;;;1.95;1.85;;;3.90;99.90;;;;;;5053042;28;20177;-68
2021/04/04 06:13:35;;;;;;;2.78;2.35;;;4.10;99.90;;;;;;5053339;28;20193;-69
2021/04/04 06:16:18;;;;;;;3.63;2.85;;;4.20;99.90;;;;;;5053859;28;20179;-68
2021/04/04 06:19:00;;;;;;;3.45;1.85;;;4.30;99.90;;;;;;5035674;28;20399;-69
2021/04/04 06:21:33;;;;;;;4.38;2.70;;;4.30;99.90;;;;;;5033688;28;20279;-68
2021/04/04 06:24:15;;;;;;;2.03;1.80;;;4.40;99.90;;;;;;5051819;28;20204;-69
2021/04/04 06:26:50;;;;;;;4.68;2.53;;;4.40;99.90;;;;;;5052004;28;20209;-68
2021/04/04 06:29:26;;;;;;;4.78;2.15;;;4.50;99.90;;;;;;5051944;28;20187;-69
2021/04/04 06:31:59;;;;;;;2.90;2.00;;;4.60;99.90;;;;;;5051685;28;20189;-68
2021/04/04 06:34:37;;;;;;;4.78;2.72;;;4.70;99.90;;;;;;5051899;28;20201;-69
2021/04/04 06:37:22;;;;;;;4.85;2.10;;;4.80;99.90;;;;;;5033693;28;20220;-69
2021/04/04 06:40:02;;;;;;;5.13;2.53;;;4.90;99.90;;;;;;5052845;28;20185;-69
2021/04/04 06:42:44;;;;;;;5.15;3.03;;;4.80;99.90;;;;;;5054311;28;20185;-67
2021/04/04 06:45:23;;;;;;;3.40;2.95;;;4.80;99.90;;;;;;5054591;28;20196;-68
2021/04/04 06:48:05;;;;;;;4.65;3.05;;;4.80;99.90;;;;;;5053282;28;20262;-69
2021/04/04 06:50:38;;;;;;;2.03;1.85;;;4.80;99.90;;;;;;5039757;28;20303;-68
2021/04/04 06:53:22;;;;;;;4.28;2.38;;;4.90;99.90;;;;;;5058645;28;20203;-68
2021/04/04 06:56:00;;;;;;;2.97;2.63;;;5.00;99.90;;;;;;5040725;28;20224;-68
2021/04/04 06:58:39;;;;;;;3.28;2.55;;;5.00;99.90;;;;;;5060895;28;20181;-68
2021/04/04 07:01:11;;;;;;;2.90;2.47;;;5.10;99.90;;;;;;5042134;28;20184;-68
2021/04/04 07:03:47;;;;;;;5.40;3.38;;;5.20;99.90;;;;;;5058708;28;20181;-69
2021/04/04 07:06:54;;;;;;;7.25;2.28;;;5.30;99.90;;;;;;5051674;28;20539;-69
2021/04/04 07:09:46;;;;;;;4.25;2.47;;;5.30;99.90;;;;;;5051748;28;20542;-69
2021/04/04 07:12:31;;;;;;;2.38;2.08;;;5.30;99.90;;;;;;5035536;28;20196;-68
2021/04/04 07:15:14;;;;;;;6.90;2.95;;;5.30;99.90;;;;;;5053653;28;20683;-69
2021/04/04 07:17:57;;;;;;;4.10;2.55;;;5.20;99.90;;;;;;5051240;28;20284;-69
2021/04/04 07:20:34;;;;;;;3.50;1.85;;;5.30;99.90;;;;;;5052158;28;20169;-68
2021/04/04 07:23:36;;;;;;;3.05;1.92;;;5.30;99.90;;;;;;5051532;28;20177;-70
2021/04/04 07:26:10;;;;;;;3.85;2.22;;;5.30;99.90;;;;;;5054976;28;20541;-69
2021/04/04 07:29:00;;;;;;;5.60;2.30;;;5.40;99.90;;;;;;5053995;28;20173;-69
2021/04/04 07:31:32;;;;;;;2.13;1.73;;;5.50;99.90;;;;;;5036417;28;20185;-69
2021/04/04 07:34:07;;;;;;;3.05;1.90;;;5.60;99.90;;;;;;5052863;28;20405;-69
2021/04/04 07:36:44;;;;;;;4.45;2.05;;;5.70;99.90;;;;;;5050844;28;20211;-69
2021/04/04 07:39:30;;;;;;;3.63;2.13;;;5.90;99.90;;;;;;5050868;28;20240;-69
2021/04/04 07:42:09;;;;;;;3.40;2.25;;;5.90;99.90;;;;;;5032663;28;20181;-68
2021/04/04 07:44:43;;;;;;;3.08;1.85;;;5.90;99.90;;;;;;5050880;28;20537;-68
2021/04/04 07:47:21;;;;;;;3.80;2.70;;;5.90;99.90;;;;;;5032986;28;20259;-68
2021/04/04 07:49:54;;;;;;;4.13;1.60;;;5.80;99.90;;;;;;5051077;28;20397;-70
2021/04/04 07:52:27;;;;;;;2.47;1.88;;;6.00;99.90;;;;;;5051260;28;20177;-68
2021/04/04 07:55:04;;;;;;;2.05;1.85;;;6.10;99.90;;;;;;5050711;28;20208;-68
2021/04/04 07:57:43;;;;;;;5.18;2.95;;;6.10;99.90;;;;;;5051486;28;20208;-68
2021/04/04 08:00:12;;;;;;;1.98;1.40;;;6.20;99.90;;;;;;5053455;28;20232;-69
2021/04/04 08:02:46;;;;;;;4.95;2.30;;;6.20;99.90;;;;;;5055529;28;20181;-69
2021/04/04 08:05:19;;;;;;;2.78;1.67;;;6.20;99.90;;;;;;5054527;28;20172;-69
2021/04/04 08:07:51;;;;;;;6.70;2.67;;;6.30;99.90;;;;;;5036716;28;20220;-68
2021/04/04 08:10:25;;;;;;;5.20;2.50;;;6.50;99.90;;;;;;5055012;28;20181;-69
2021/04/04 08:13:00;;;;;;;14.88;4.03;;;6.50;99.90;;;;;;5054753;28;20195;-69
2021/04/04 08:15:30;;;;;;;8.35;3.63;;;6.50;99.90;;;;;;5036675;28;20299;-68
2021/04/04 08:17:57;;;;;;;4.40;4.00;;;6.70;99.90;;;;;;5054841;28;20266;-68
2021/04/04 08:20:28;;;;;;;10.40;4.13;;;6.70;99.90;;;;;;5054466;28;20272;-69
2021/04/04 08:23:01;;;;;;;5.20;3.92;;;6.80;99.90;;;;;;5036532;28;20227;-69
2021/04/04 08:25:38;;;;;;;3.70;2.70;;;6.80;99.90;;;;;;5055046;28;20270;-68
2021/04/04 08:28:11;;;;;;;3.90;2.45;;;6.70;99.90;;;;;;5054723;28;20240;-69
2021/04/04 08:30:47;;;;;;;4.55;3.28;;;6.70;99.90;;;;;;5054411;28;20175;-69
2021/04/04 08:33:19;;;;;;;8.45;3.65;;;6.80;99.90;;;;;;5054380;28;20645;-69
2021/04/04 08:35:49;;;;;;;7.05;4.03;;;7.10;99.90;;;;;;5054111;28;20235;-69
2021/04/04 08:38:21;;;;;;;7.65;4.13;;;7.30;99.90;;;;;;5054368;28;20209;-68
2021/04/04 08:40:49;;;;;;;5.35;3.55;;;7.60;99.90;;;;;;5036272;28;20185;-68
2021/04/04 08:43:17;;;;;;;7.38;2.90;;;7.70;99.90;;;;;;5054434;28;20227;-69
2021/04/04 08:45:52;;;;;;;8.30;4.50;;;7.80;99.90;;;;;;5035889;28;20270;-68
2021/04/04 08:48:20;;;;;;;9.55;3.70;;;8.00;99.90;;;;;;5053808;28;20433;-68
2021/04/04 08:50:51;;;;;;;13.25;3.72;;;8.10;99.90;;;;;;5053883;28;20197;-69
2021/04/04 08:53:28;;;;;;;8.90;3.88;;;8.20;99.90;;;;;;5036189;28;20319;-69
2021/04/04 08:55:56;;;;;;;9.05;4.45;;;8.10;99.90;;;;;;5053336;28;20224;-68
2021/04/04 08:58:29;;;;;;;8.60;5.05;;;7.90;99.90;;;;;;5053498;28;20258;-68
2021/04/04 09:01:05;;;;;;;5.15;3.22;;;7.80;99.90;;;;;;5054309;28;20638;-68
2021/04/04 09:03:37;;;;;;;6.93;3.78;;;7.90;99.90;;;;;;5054982;28;20181;-68
2021/04/04 09:06:06;;;;;;;13.18;4.80;;;8.00;99.90;;;;;;5054081;28;20558;-69
2021/04/04 09:08:39;;;;;;;9.00;4.15;;;8.10;99.90;;;;;;5054218;28;20191;-69
2021/04/04 09:11:08;;;;;;;10.27;4.20;;;8.30;99.90;;;;;;5035920;28;20193;-69
2021/04/04 09:13:37;;;;;;;8.50;3.65;;;8.40;99.90;;;;;;5053969;28;20188;-69
2021/04/04 09:16:11;;;;;;;5.03;3.70;;;8.60;99.90;;;;;;5053731;28;20553;-70
2021/04/04 09:18:50;;;;;;;6.65;3.35;;;8.80;99.90;;;;;;5035325;28;20189;-69
2021/04/04 09:21:22;;;;;;;6.32;3.15;;;9.00;99.90;;;;;;5053399;28;20200;-69
2021/04/04 09:23:53;;;;;;;6.93;3.38;;;8.90;99.90;;;;;;5035273;28;20238;-68
2021/04/04 09:26:23;;;;;;;7.95;3.58;;;8.70;99.90;;;;;;5053243;28;20235;-68
2021/04/04 09:28:52;;;;;;;6.70;4.32;;;8.80;99.90;;;;;;5035436;28;20242;-68
2021/04/04 09:31:24;;;;;;;6.45;5.00;;;8.80;99.90;;;;;;5035781;28;20207;-68
2021/04/04 09:34:00;;;;;;;11.52;5.07;;;9.10;99.90;;;;;;5052938;28;20196;-68
2021/04/04 09:36:43;;;;;;;11.57;4.60;;;9.20;99.90;;;;;;5052847;28;20637;-68
2021/04/04 09:39:14;;;;;;;9.38;3.85;;;9.40;99.90;;;;;;5053624;28;20195;-68
2021/04/04 09:41:48;;;;;;;3.95;2.72;;;9.40;99.90;;;;;;5053767;28;20260;-69
2021/04/04 09:44:15;;;;;;;5.50;3.10;;;9.10;99.90;;;;;;5053831;28;20173;-69
2021/04/04 09:46:54;;;;;;;9.55;3.53;;;9.00;99.90;;;;;;5053047;28;20201;-69
2021/04/04 09:49:49;;;;;;;4.70;3.90;;;9.00;99.90;;;;;;5053186;28;20263;-69
2021/04/04 09:52:23;;;;;;;7.53;2.88;;;9.00;99.90;;;;;;5017779;28;20753;-68
2021/04/04 09:55:05;;;;;;;5.60;3.65;;;8.90;99.90;;;;;;5052810;28;20218;-68
2021/04/04 09:57:55;;;;;;;4.50;3.35;;;8.60;99.90;;;;;;5034816;28;20301;-67
2021/04/04 10:00:28;;;;;;;15.38;3.20;;;8.50;99.90;;;;;;5052716;28;20188;-68
2021/04/04 10:02:58;;;;;;;5.90;3.38;;;8.80;99.90;;;;;;5052974;28;20605;-68
2021/04/04 10:05:27;;;;;;;5.30;3.92;;;9.10;99.90;;;;;;5052631;28;20331;-68
2021/04/04 10:07:54;;;;;;;6.88;3.67;;;9.40;99.90;;;;;;5052517;28;20204;-69
2021/04/04 10:10:31;;;;;;;11.02;4.22;;;9.60;99.90;;;;;;5052159;28;20231;-69
2021/04/04 10:13:00;;;;;;;7.53;4.95;;;9.50;99.90;;;;;;5047099;28;20670;-70
2021/04/04 10:15:37;;;;;;;8.93;4.40;;;9.70;99.90;;;;;;5034727;28;20193;-68
2021/04/04 10:18:06;;;;;;;6.32;3.85;;;9.80;99.90;;;;;;5033170;28;20700;-68
2021/04/04 10:20:36;;;;;;;5.47;4.75;;;10.10;99.90;;;;;;5036378;28;20658;-68
2021/04/04 10:23:07;;;;;;;9.55;3.67;;;10.40;99.90;;;;;;5032904;28;20197;-71
2021/04/04 10:25:35;;;;;;;9.18;4.22;;;10.60;99.90;;;;;;5033320;28;20583;-69
2021/04/04 10:28:06;;;;;;;6.35;4.20;;;10.70;99.90;;;;;;5032648;28;20727;-70
2021/04/04 10:30:35;;;;;;;8.25;4.40;;;10.90;99.90;;;;;;5032235;28;20247;-69
2021/04/04 10:33:21;;;;;;;10.60;4.47;;;11.00;99.90;;;;;;5031581;28;20177;-69
2021/04/04 10:35:49;;;;;;;6.60;2.60;;;11.50;99.90;;;;;;5031164;28;20820;-70
2021/04/04 10:38:18;;;;;;;7.47;3.20;;;11.40;99.90;;;;;;5013260;28;20540;-68
2021/04/04 10:40:49;;;;;;;5.10;3.67;;;11.30;99.90;;;;;;5031304;28;20491;-68
2021/04/04 10:43:18;;;;;;;3.80;2.67;;;11.60;99.90;;;;;;5030516;28;20404;-68
2021/04/04 10:45:57;;;;;;;7.57;3.97;;;12.00;99.90;;;;;;5039412;28;20898;-70
2021/04/04 10:48:25;;;;;;;5.20;3.03;;;12.30;99.90;;;;;;5040221;28;20467;-70
2021/04/04 10:50:53;;;;;;;3.63;2.40;;;12.40;99.90;;;;;;5043647;28;20603;-69
2021/04/04 10:53:21;;;;;;;7.83;3.13;;;12.30;99.90;;;;;;5048999;28;20431;-68
2021/04/04 10:55:49;;;;;;;14.10;3.37;;;11.80;99.90;;;;;;5050018;28;20466;-70
2021/04/04 10:58:20;;;;;;;10.50;3.33;;;11.80;99.90;;;;;;5048033;28;20417;-68
2021/04/04 11:00:48;;;;;;;6.40;3.70;;;12.10;99.90;;;;;;5031187;28;20858;-68
2021/04/04 11:03:16;;;;;;;11.20;3.53;;;12.10;99.90;;;;;;5030821;28;20409;-70
2021/04/04 11:05:47;;;;;;;7.70;3.90;;;11.80;99.90;;;;;;5031769;28;20435;-70
2021/04/04 11:08:15;;;;;;;5.63;3.47;;;11.40;99.90;;;;;;5031990;28;20448;-69
2021/04/04 11:10:42;;;;;;;5.20;3.55;;;10.50;99.90;;;;;;5032783;28;20672;-70
2021/04/04 11:13:12;;;;;;;5.85;4.18;;;10.00;99.90;;;;;;5032760;28;20181;-70
2021/04/04 11:15:43;;;;;;;4.13;2.50;;;9.90;99.90;;;;;;5042528;28;20719;-67
2021/04/04 11:18:13;;;;;;;5.60;2.53;;;9.80;99.90;;;;;;5032983;28;20235;-71
2021/04/04 11:20:43;;;;;;;10.35;4.13;;;9.60;99.90;;;;;;5052169;28;20173;-71
2021/04/04 11:23:15;;;;;;;11.50;3.22;;;9.60;99.90;;;;;;5051771;28;20188;-68
2021/04/04 11:25:43;;;;;;;4.88;3.17;;;9.50;99.90;;;;;;5053451;28;20180;-68
2021/04/04 11:28:18;;;;;;;4.80;3.35;;;9.70;99.90;;;;;;5039636;28;20335;-67
2021/04/04 11:30:46;;;;;;;3.65;2.95;;;9.70;99.90;;;;;;5059629;28;20196;-69
2021/04/04 11:33:22;;;;;;;11.20;3.92;;;9.60;99.90;;;;;;5066663;28;20197;-70
2021/04/04 11:36:01;;;;;;;4.10;3.67;;;9.70;99.90;;;;;;5070380;28;20275;-69
2021/04/04 11:38:31;;;;;;;7.78;3.60;;;9.60;99.90;;;;;;5034428;28;20200;-69
2021/04/04 11:41:17;;;;;;;11.52;3.35;;;9.80;99.90;;;;;;5051656;28;20455;-70
2021/04/04 11:43:46;;;;;;;5.40;2.75;;;10.00;99.90;;;;;;5067324;28;20230;-69
2021/04/04 11:46:44;;;;;;;5.13;4.07;;;10.30;99.90;;;;;;5065000;28;20215;-69
2021/04/04 11:49:48;;;;;;;7.88;5.32;;;10.60;99.90;;;;;;5035107;28;20203;-70
2021/04/04 11:52:38;;;;;;;4.35;3.92;;;10.40;99.90;;;;;;5060489;28;20223;-69
2021/04/04 11:55:09;;;;;;;4.82;3.17;;;10.20;99.90;;;;;;5034546;28;20282;-69
2021/04/04 11:57:39;;;;;;;6.65;3.70;;;10.50;99.90;;;;;;5055549;28;20216;-68
2021/04/04 12:00:09;;;;;;;4.35;2.63;;;10.70;99.90;;;;;;5054392;28;20208;-67
2021/04/04 12:02:39;;;;;;;2.67;2.47;;;11.10;99.90;;;;;;5054356;28;20196;-70
2021/04/04 12:05:12;;;;;;;9.47;4.77;;;11.40;99.90;;;;;;5029092;28;20253;-69
2021/04/04 12:07:46;;;;;;;3.80;3.30;;;11.30;99.90;;;;;;5024528;28;20511;-69
2021/04/04 12:10:16;;;;;;;5.72;3.90;;;10.80;99.90;;;;;;5022678;28;20425;-68
2021/04/04 12:12:44;;;;;;;10.38;2.80;;;10.10;99.90;;;;;;5034162;28;20239;-69
2021/04/04 12:15:13;;;;;;;5.80;2.97;;;9.90;99.90;;;;;;5033770;28;20209;-69
2021/04/04 12:17:46;;;;;;;5.75;3.22;;;9.90;99.90;;;;;;5030031;28;20690;-68
2021/04/04 12:20:14;;;;;;;7.28;3.42;;;10.00;99.90;;;;;;5016568;28;20915;-69
2021/04/04 12:22:44;;;;;;;4.93;3.70;;;10.20;99.90;;;;;;5034315;28;20197;-69
2021/04/04 12:25:15;;;;;;;4.35;3.13;;;10.50;99.90;;;;;;5017625;28;20186;-68
2021/04/04 12:27:45;;;;;;;9.10;3.60;;;10.50;99.90;;;;;;5013765;28;20209;-69
2021/04/04 12:30:27;;;;;;;3.95;2.60;;;10.70;99.90;;;;;;5014113;28;20186;-69
2021/04/04 12:33:02;;;;;;;11.65;2.80;;;10.90;99.90;;;;;;5014255;28;20185;-71
2021/04/04 12:35:30;;;;;;;8.63;2.50;;;11.10;99.90;;;;;;5013838;28;20605;-69
2021/04/04 12:37:57;;;;;;;7.43;2.70;;;11.30;99.90;;;;;;5013609;28;20445;-69
2021/04/04 12:40:25;;;;;;;6.20;2.45;;;11.30;99.90;;;;;;5013909;28;20416;-69
2021/04/04 12:42:57;;;;;;;3.43;2.17;;;11.30;99.90;;;;;;5013922;28;20291;-69
2021/04/04 12:45:30;;;;;;;2.40;2.20;;;11.40;99.90;;;;;;5013402;28;20455;-69
2021/04/04 12:47:57;;;;;;;5.27;2.60;;;11.40;99.90;;;;;;5013954;28;20238;-69
2021/04/04 12:50:26;;;;;;;4.18;2.67;;;11.20;99.90;;;;;;5014199;28;20890;-69
2021/04/04 12:52:53;;;;;;;7.40;3.70;;;11.00;99.90;;;;;;4996127;28;20206;-68
2021/04/04 12:55:25;;;;;;;5.28;3.47;;;10.50;99.90;;;;;;5013447;28;20476;-69
2021/04/04 12:57:57;;;;;;;5.60;2.85;;;10.50;99.90;;;;;;5013760;28;20222;-69
2021/04/04 13:00:26;;;;;;;4.45;3.03;;;10.50;99.90;;;;;;5013689;28;20189;-68
2021/04/04 13:02:58;;;;;;;5.60;2.90;;;10.90;99.90;;;;;;5013559;28;20201;-69
2021/04/04 13:05:31;;;;;;;3.70;2.92;;;11.40;99.90;;;;;;5013286;28;20225;-69
2021/04/04 13:08:00;;;;;;;3.83;3.40;;;11.60;99.90;;;;;;5022028;28;20732;-69
2021/04/04 13:10:28;;;;;;;3.90;2.53;;;11.60;99.90;;;;;;5021580;28;20490;-69
2021/04/04 13:12:55;;;;;;;4.90;3.35;;;11.20;99.90;;;;;;5012441;28;20916;-70
2021/04/04 13:15:29;;;;;;;3.40;3.05;;;11.10;99.90;;;;;;5023577;28;20676;-70
2021/04/04 13:17:56;;;;;;;5.00;2.90;;;11.10;99.90;;;;;;5025007;28;20228;-68
2021/04/04 13:20:24;;;;;;;4.20;2.90;;;11.00;99.90;;;;;;5012148;28;20483;-69
2021/04/04 13:22:52;;;;;;;5.60;2.67;;;10.80;99.90;;;;;;5012380;28;20200;-69